Time;durP1;ratioP1;P1;durP2;ratioP2;P2;SDS_P1;SDS_P2;PMS_P1;PMS_P2;Temp;Humidity;BMP_temperature;BMP_pressure;BME280_temperature;BME280_humidity;BME280_pressure;Samples;Min_cycle;Max_cycle;Signal;HPM_P1;HPM_P2
2022/05/16 00:01:54;;;;;;;4.47;3.43;;;17.30;21.10;;;;;;5051509;28;20205;-62
2022/05/16 00:04:21;;;;;;;6.40;3.70;;;17.20;27.00;;;;;;5053630;28;20210;-61
2022/05/16 00:06:48;;;;;;;7.00;3.43;;;17.20;31.10;;;;;;5055333;28;20651;-62
2022/05/16 00:09:15;;;;;;;7.33;3.40;;;17.10;34.50;;;;;;5055546;28;20251;-62
2022/05/16 00:11:44;;;;;;;5.67;4.07;;;17.20;39.70;;;;;;5055196;28;20242;-63
2022/05/16 00:14:11;;;;;;;7.27;3.60;;;17.20;34.20;;;;;;5055410;28;20202;-63
2022/05/16 00:16:38;;;;;;;6.77;3.70;;;17.20;31.50;;;;;;5055093;28;20665;-63
2022/05/16 00:19:06;;;;;;;5.93;3.20;;;17.20;28.50;;;;;;5055523;28;20202;-63
2022/05/16 00:21:33;;;;;;;6.17;3.13;;;17.20;22.80;;;;;;5055029;28;20237;-62
2022/05/16 00:24:00;;;;;;;5.37;3.33;;;17.30;19.40;;;;;;5055366;28;20246;-62
2022/05/16 00:26:27;;;;;;;5.07;3.03;;;17.30;18.30;;;;;;5054830;28;20239;-63
2022/05/16 00:28:56;;;;;;;5.03;3.67;;;17.30;19.00;;;;;;5055119;28;20198;-62
2022/05/16 00:31:22;;;;;;;5.00;3.40;;;17.40;20.60;;;;;;5054787;28;20604;-62
2022/05/16 00:33:49;;;;;;;5.30;3.50;;;17.30;20.10;;;;;;5055330;28;20196;-62
2022/05/16 00:36:16;;;;;;;6.17;3.57;;;17.40;20.30;;;;;;5055007;28;20558;-62
2022/05/16 00:38:43;;;;;;;6.93;3.20;;;17.40;19.00;;;;;;5055032;28;20194;-63
2022/05/16 00:41:10;;;;;;;9.40;3.70;;;17.30;19.50;;;;;;5054963;28;20214;-62
2022/05/16 00:43:52;;;;;;;5.63;3.50;;;17.30;19.10;;;;;;5054938;28;20220;-63
2022/05/16 00:46:21;;;;;;;7.13;3.83;;;17.20;21.20;;;;;;5055007;28;20187;-62
2022/05/16 00:48:49;;;;;;;5.67;3.70;;;17.10;26.10;;;;;;5054893;28;20225;-62
2022/05/16 00:51:20;;;;;;;6.63;3.63;;;17.10;29.80;;;;;;5054499;28;20685;-62
2022/05/16 00:53:49;;;;;;;4.33;3.40;;;17.00;32.20;;;;;;5054454;28;20180;-62
2022/05/16 00:56:16;;;;;;;7.17;3.57;;;17.10;46.00;;;;;;5054595;28;20195;-63
2022/05/16 00:58:43;;;;;;;4.87;3.40;;;17.00;51.70;;;;;;5054714;28;20556;-62
2022/05/16 01:06:40;;;;;;;6.47;3.60;;;17.10;59.60;;;;;;5054252;28;20702;-63
2022/05/16 01:09:07;;;;;;;5.57;3.30;;;17.20;43.40;;;;;;5054638;28;20202;-62
2022/05/16 01:11:36;;;;;;;3.53;3.23;;;17.40;30.50;;;;;;5054376;28;20199;-62
2022/05/16 01:14:04;;;;;;;4.57;2.90;;;17.60;23.40;;;;;;5054335;28;20217;-63
2022/05/16 01:16:31;;;;;;;4.30;2.73;;;17.70;20.10;;;;;;5053373;28;20210;-62
2022/05/16 01:18:59;;;;;;;4.67;2.73;;;17.70;15.50;;;;;;5054300;28;20199;-62
2022/05/16 01:21:34;;;;;;;3.80;2.80;;;17.70;15.10;;;;;;5054186;28;20207;-62
2022/05/16 01:24:07;;;;;;;6.50;2.70;;;17.70;12.30;;;;;;5053893;28;20543;-62
2022/05/16 01:26:36;;;;;;;4.90;2.63;;;17.80;8.20;;;;;;5053760;28;20245;-63
2022/05/16 01:29:04;;;;;;;3.03;2.70;;;17.80;5.90;;;;;;5053992;28;20187;-62
2022/05/16 01:31:32;;;;;;;4.93;2.60;;;17.80;1.00;;;;;;5054076;28;20195;-62
2022/05/16 01:33:59;;;;;;;4.47;2.77;;;17.90;1.00;;;;;;5054032;28;20603;-62
2022/05/16 01:36:26;;;;;;;5.00;2.93;;;17.90;1.00;;;;;;5053959;28;20253;-62
2022/05/16 01:38:54;;;;;;;2.90;2.47;;;17.80;1.00;;;;;;5053918;28;20206;-62
2022/05/16 01:41:24;;;;;;;4.97;3.07;;;17.80;1.00;;;;;;5053839;28;20211;-62
2022/05/16 01:43:55;;;;;;;5.57;2.77;;;17.70;1.00;;;;;;5053696;28;20660;-63
2022/05/16 01:46:25;;;;;;;5.07;2.67;;;17.70;1.00;;;;;;5053954;28;20176;-63
2022/05/16 01:48:52;;;;;;;6.03;2.87;;;17.70;1.00;;;;;;5053780;28;20184;-62
2022/05/16 01:51:20;;;;;;;4.97;2.83;;;17.60;1.00;;;;;;5053624;28;20187;-63
2022/05/16 01:53:47;;;;;;;4.53;2.93;;;17.60;1.00;;;;;;5053365;28;20206;-63
2022/05/16 01:56:15;;;;;;;4.67;2.83;;;17.60;1.00;;;;;;5053137;28;20734;-62
2022/05/16 01:58:44;;;;;;;5.17;2.83;;;17.70;1.00;;;;;;5053508;28;20191;-63
2022/05/16 02:01:13;;;;;;;6.00;2.70;;;17.60;1.00;;;;;;5053512;28;20208;-63
2022/05/16 02:03:41;;;;;;;5.73;2.60;;;17.70;1.00;;;;;;5053430;28;20615;-61
2022/05/16 02:06:09;;;;;;;4.57;2.97;;;17.70;1.00;;;;;;5053426;28;20187;-62
2022/05/16 02:08:37;;;;;;;4.57;2.50;;;17.70;1.00;;;;;;5053369;28;20550;-62
2022/05/16 02:11:05;;;;;;;3.70;2.90;;;17.70;1.00;;;;;;5053337;28;20206;-62
2022/05/16 02:13:33;;;;;;;6.67;3.30;;;17.70;1.00;;;;;;5053256;28;20234;-62
2022/05/16 02:16:02;;;;;;;3.63;2.93;;;17.70;1.00;;;;;;5053364;28;20282;-62
2022/05/16 02:18:29;;;;;;;4.23;2.80;;;17.60;1.00;;;;;;5053134;28;20562;-62
2022/05/16 02:24:38;;;;;;;3.70;3.17;;;17.40;1.00;;;;;;5053065;28;20214;-63
2022/05/16 02:26:30;;;;;;;4.27;2.77;;;17.20;3.60;;;;;;5034862;28;20209;-62
2022/05/16 02:28:57;;;;;;;5.87;2.77;;;17.40;1.00;;;;;;5053039;28;20268;-62
2022/05/16 02:31:26;;;;;;;4.30;2.90;;;17.60;1.00;;;;;;5052759;28;20206;-62
2022/05/16 02:33:52;;;;;;;6.07;3.13;;;17.60;1.00;;;;;;5052894;28;20248;-62
2022/05/16 02:36:19;;;;;;;4.33;2.83;;;17.70;1.00;;;;;;5053013;28;20211;-62
2022/05/16 02:38:46;;;;;;;4.10;3.00;;;17.60;1.00;;;;;;5052843;28;20196;-62
2022/05/16 02:41:13;;;;;;;3.73;2.60;;;17.50;1.00;;;;;;5052721;28;20208;-62
2022/05/16 02:43:40;;;;;;;4.47;3.20;;;17.50;1.00;;;;;;5052715;28;20285;-62
2022/05/16 02:46:07;;;;;;;3.93;2.90;;;17.30;1.40;;;;;;5052704;28;20203;-62
2022/05/16 02:48:35;;;;;;;4.17;3.00;;;17.10;9.00;;;;;;5052347;28;20661;-62
2022/05/16 02:51:02;;;;;;;4.53;3.20;;;16.70;19.60;;;;;;5052555;28;20248;-63
2022/05/16 02:53:29;;;;;;;3.50;3.10;;;16.60;47.00;;;;;;5052242;28;20201;-62
2022/05/16 02:55:56;;;;;;;5.33;3.50;;;16.40;72.00;;;;;;5052189;28;20194;-63
2022/05/16 02:58:23;;;;;;;6.33;3.70;;;16.30;94.20;;;;;;5052356;28;20573;-62
2022/05/16 03:00:50;;;;;;;6.70;3.90;;;16.40;98.50;;;;;;5052411;28;20232;-62
2022/05/16 03:03:17;;;;;;;5.80;3.43;;;16.40;93.70;;;;;;5052308;28;20248;-62
2022/05/16 03:05:45;;;;;;;6.03;3.33;;;16.40;93.70;;;;;;5052463;28;20300;-62
2022/05/16 03:08:12;;;;;;;3.93;3.00;;;16.50;97.30;;;;;;5052366;28;20200;-62
2022/05/16 03:10:39;;;;;;;6.33;3.40;;;16.60;92.30;;;;;;5051931;28;20654;-62
2022/05/16 03:13:06;;;;;;;5.50;3.20;;;16.60;79.30;;;;;;5052335;28;20299;-62
2022/05/16 03:15:33;;;;;;;5.10;3.20;;;16.60;74.90;;;;;;5051975;28;20197;-62
2022/05/16 03:18:00;;;;;;;6.17;3.03;;;16.50;66.40;;;;;;5052148;28;20205;-63
2022/05/16 03:20:28;;;;;;;5.43;3.00;;;16.40;76.40;;;;;;5052043;28;20229;-62
2022/05/16 03:22:56;;;;;;;6.17;3.50;;;16.30;88.40;;;;;;5051832;28;20697;-62
2022/05/16 03:25:23;;;;;;;5.13;3.40;;;16.20;99.90;;;;;;5052144;28;20198;-62
2022/05/16 03:27:50;;;;;;;3.50;3.17;;;16.10;99.90;;;;;;5051683;28;20326;-62
2022/05/16 03:30:17;;;;;;;5.73;3.20;;;16.00;99.90;;;;;;5051739;28;20203;-62
2022/05/16 03:32:44;;;;;;;5.90;3.23;;;16.00;99.90;;;;;;5052118;28;20197;-61
2022/05/16 03:35:11;;;;;;;4.50;3.07;;;16.00;99.90;;;;;;5052172;28;20207;-62
2022/05/16 03:37:38;;;;;;;3.37;3.00;;;16.20;99.90;;;;;;5052071;28;20200;-62
2022/05/16 03:42:52;;;;;;;4.43;3.00;;;16.40;99.90;;;;;;5056197;28;20178;-63
2022/05/16 03:45:19;;;;;;;3.97;2.90;;;16.50;99.90;;;;;;5056118;28;20199;-63
2022/05/16 03:47:47;;;;;;;4.67;3.30;;;16.60;97.40;;;;;;5056072;28;20244;-63
2022/05/16 03:50:14;;;;;;;4.63;2.90;;;16.70;90.40;;;;;;5055912;28;20212;-62
2022/05/16 03:52:41;;;;;;;4.03;3.20;;;16.80;80.50;;;;;;5055671;28;20215;-62
2022/05/16 03:55:13;;;;;;;6.10;3.70;;;16.80;83.00;;;;;;5055885;28;20205;-62
2022/05/16 03:57:41;;;;;;;5.70;3.53;;;16.80;91.00;;;;;;5055654;28;20216;-62
2022/05/16 04:00:10;;;;;;;5.50;3.23;;;16.90;96.80;;;;;;5055880;28;20193;-62
2022/05/16 04:02:37;;;;;;;6.80;3.30;;;16.80;99.90;;;;;;5055646;28;20239;-62
2022/05/16 04:05:05;;;;;;;5.93;3.80;;;16.80;96.70;;;;;;5055804;28;20305;-61
2022/05/16 04:07:33;;;;;;;6.07;4.10;;;16.80;93.20;;;;;;5055508;28;20205;-62
2022/05/16 04:10:01;;;;;;;5.87;3.57;;;16.80;88.50;;;;;;5055720;28;20352;-62
2022/05/16 04:12:29;;;;;;;5.60;3.63;;;16.70;91.50;;;;;;5055602;28;20646;-62
2022/05/16 04:14:56;;;;;;;4.13;3.27;;;16.70;94.20;;;;;;5055261;28;20220;-62
2022/05/16 04:17:23;;;;;;;5.13;3.37;;;16.70;99.90;;;;;;5055402;28;20200;-62
2022/05/16 04:19:50;;;;;;;6.33;3.60;;;16.70;99.90;;;;;;5055396;28;20286;-63
2022/05/16 04:22:17;;;;;;;6.90;3.83;;;16.80;99.90;;;;;;5055247;28;20301;-62
2022/05/16 04:24:44;;;;;;;8.30;4.07;;;16.90;99.90;;;;;;5055031;28;20651;-62
2022/05/16 04:27:11;;;;;;;5.83;3.80;;;16.90;99.90;;;;;;5055103;28;20238;-63
2022/05/16 04:29:40;;;;;;;5.37;3.67;;;17.00;99.90;;;;;;5055086;28;20189;-63
2022/05/16 04:32:07;;;;;;;6.20;3.50;;;17.10;99.80;;;;;;5055060;28;20687;-62
2022/05/16 04:34:34;;;;;;;6.43;3.90;;;17.20;94.60;;;;;;5055203;28;20209;-62
2022/05/16 04:37:01;;;;;;;8.37;4.57;;;17.30;92.00;;;;;;5054834;28;20202;-63
2022/05/16 04:39:28;;;;;;;7.60;4.57;;;17.40;94.20;;;;;;5055079;28;20199;-63
2022/05/16 04:44:41;;;;;;;5.97;4.10;;;17.60;77.50;;;;;;5054731;28;20659;-63
2022/05/16 04:47:09;;;;;;;5.70;4.20;;;17.50;72.50;;;;;;5054867;28;20202;-62
2022/05/16 04:49:37;;;;;;;8.10;4.20;;;17.60;69.10;;;;;;5054196;28;20214;-62
2022/05/16 04:52:05;;;;;;;6.73;3.80;;;17.60;59.60;;;;;;5054103;28;20588;-62
2022/05/16 04:54:32;;;;;;;4.83;3.50;;;17.80;48.30;;;;;;5054767;28;20739;-62
2022/05/16 04:56:59;;;;;;;5.97;4.13;;;17.90;50.50;;;;;;5054659;28;20203;-63
2022/05/16 04:59:26;;;;;;;5.07;4.00;;;18.20;50.30;;;;;;5054693;28;20203;-61
2022/05/16 05:01:54;;;;;;;6.20;4.27;;;18.40;33.10;;;;;;5054938;28;20310;-62
2022/05/16 05:04:21;;;;;;;6.13;4.50;;;18.30;29.30;;;;;;5054565;28;20192;-62
2022/05/16 05:06:48;;;;;;;5.50;4.73;;;18.50;33.70;;;;;;5054533;28;20278;-62
2022/05/16 05:09:15;;;;;;;7.03;4.23;;;18.60;28.80;;;;;;5054718;28;20200;-62
2022/05/16 05:14:33;;;;;;;6.80;4.23;;;19.10;25.90;;;;;;5054479;28;20169;-62
2022/05/16 05:17:01;;;;;;;6.03;3.87;;;19.60;7.60;;;;;;5054492;28;20279;-62
2022/05/16 05:19:28;;;;;;;6.83;4.23;;;19.80;13.20;;;;;;5054369;28;20199;-62
2022/05/16 05:21:55;;;;;;;6.30;4.20;;;19.60;1.00;;;;;;5054499;28;20226;-62
2022/05/16 05:24:22;;;;;;;7.43;4.53;;;19.30;1.00;;;;;;5054246;28;20196;-62
2022/05/16 05:26:49;;;;;;;7.17;4.37;;;19.20;1.00;;;;;;5053864;28;20597;-61
2022/05/16 05:29:18;;;;;;;8.53;4.83;;;19.10;1.00;;;;;;5054262;28;20184;-61
2022/05/16 05:31:45;;;;;;;6.67;4.67;;;18.90;21.70;;;;;;5054422;28;20187;-60
2022/05/16 05:34:14;;;;;;;9.17;5.30;;;18.80;28.30;;;;;;5054169;28;20294;-60
2022/05/16 05:36:41;;;;;;;5.87;4.43;;;18.70;21.80;;;;;;5054334;28;20199;-61
2022/05/16 05:39:09;;;;;;;7.10;4.20;;;18.60;17.00;;;;;;5054069;28;20284;-61
2022/05/16 05:41:36;;;;;;;4.80;3.80;;;18.50;30.60;;;;;;5053968;28;20579;-62
2022/05/16 05:44:03;;;;;;;6.33;4.03;;;18.60;34.20;;;;;;5054129;28;20191;-61
2022/05/16 05:46:35;;;;;;;7.83;4.30;;;18.50;33.10;;;;;;5053972;28;20200;-62
2022/05/16 05:49:03;;;;;;;7.63;4.50;;;18.50;38.50;;;;;;5053799;28;20184;-61
2022/05/16 05:51:32;;;;;;;32.17;5.27;;;18.60;45.20;;;;;;5053833;28;20195;-61
2022/05/16 05:53:59;;;;;;;7.87;4.37;;;18.50;77.20;;;;;;5053833;28;20196;-61
2022/05/16 05:56:27;;;;;;;10.20;4.70;;;18.50;59.70;;;;;;5053331;28;20199;-61
2022/05/16 05:58:55;;;;;;;8.53;4.60;;;18.40;45.40;;;;;;5053643;28;20246;-60
2022/05/16 06:01:22;;;;;;;11.70;5.03;;;18.40;72.80;;;;;;5052738;28;20216;-60
2022/05/16 06:03:49;;;;;;;6.63;4.40;;;18.30;90.50;;;;;;5053906;28;20581;-61
2022/05/16 06:06:16;;;;;;;14.70;5.07;;;18.50;73.80;;;;;;5053326;28;20676;-60
2022/05/16 06:08:45;;;;;;;9.83;4.40;;;18.50;86.90;;;;;;5053544;28;20206;-62
2022/05/16 06:11:12;;;;;;;7.27;3.90;;;18.30;99.90;;;;;;5053444;28;20202;-61
2022/05/16 06:13:39;;;;;;;8.03;4.17;;;18.30;99.90;;;;;;5053164;28;20649;-61
2022/05/16 06:16:08;;;;;;;8.57;3.73;;;18.40;99.90;;;;;;5053233;28;20195;-61
2022/05/16 06:18:35;;;;;;;6.47;3.63;;;18.30;99.90;;;;;;5053301;28;20203;-61
2022/05/16 06:21:03;;;;;;;6.00;3.50;;;18.30;99.90;;;;;;5053292;28;20206;-61
2022/05/16 06:23:30;;;;;;;4.60;3.33;;;18.40;99.90;;;;;;5053273;28;20198;-61
2022/05/16 06:25:59;;;;;;;10.13;3.70;;;18.50;99.90;;;;;;5052963;28;20261;-60
2022/05/16 06:28:29;;;;;;;9.77;3.87;;;18.50;99.90;;;;;;5052463;28;20231;-60
2022/05/16 06:30:57;;;;;;;10.13;3.80;;;18.40;99.90;;;;;;5052914;28;20200;-60
2022/05/16 06:33:28;;;;;;;5.90;4.07;;;18.40;99.90;;;;;;5052750;28;20317;-60
2022/05/16 06:35:56;;;;;;;8.90;4.50;;;18.30;99.90;;;;;;5052624;28;20543;-60
2022/05/16 06:38:29;;;;;;;9.07;4.00;;;18.30;99.90;;;;;;5052370;28;20680;-60
2022/05/16 06:40:58;;;;;;;6.77;3.97;;;18.40;99.90;;;;;;5052544;28;20195;-61
2022/05/16 06:43:26;;;;;;;7.60;4.33;;;18.50;99.90;;;;;;5052783;28;20199;-61
2022/05/16 06:45:54;;;;;;;7.70;4.20;;;18.60;99.90;;;;;;5052744;28;20204;-61
2022/05/16 06:48:21;;;;;;;6.27;3.83;;;18.60;99.90;;;;;;5052613;28;20206;-60
2022/05/16 06:50:49;;;;;;;5.70;3.87;;;18.60;99.90;;;;;;5052705;28;20203;-62
2022/05/16 06:53:19;;;;;;;5.00;3.80;;;18.60;99.90;;;;;;5052688;28;20183;-61
2022/05/16 06:55:47;;;;;;;7.37;3.77;;;18.60;99.90;;;;;;5052604;28;20279;-61
2022/05/16 06:58:15;;;;;;;4.53;4.00;;;18.60;99.90;;;;;;5052762;28;20211;-61
2022/05/16 07:00:42;;;;;;;6.83;4.00;;;18.60;99.90;;;;;;5052161;28;20206;-60
2022/05/16 07:03:11;;;;;;;6.47;4.10;;;18.50;99.90;;;;;;5052622;28;20323;-60
2022/05/16 07:05:38;;;;;;;5.67;3.70;;;18.40;99.90;;;;;;5052450;28;20649;-61
2022/05/16 07:08:05;;;;;;;5.40;3.93;;;18.50;99.90;;;;;;5052558;28;20196;-60
2022/05/16 07:10:33;;;;;;;7.10;3.77;;;18.60;99.90;;;;;;5052339;28;20210;-61
2022/05/16 07:13:00;;;;;;;5.37;3.77;;;18.60;99.90;;;;;;5051774;28;20553;-61
2022/05/16 07:15:28;;;;;;;6.60;3.90;;;18.70;99.90;;;;;;5051894;28;20661;-61
2022/05/16 07:17:55;;;;;;;7.47;3.80;;;18.90;99.90;;;;;;5052360;28;20207;-60
2022/05/16 07:20:23;;;;;;;11.63;3.77;;;19.00;99.90;;;;;;5052289;28;20218;-61
2022/05/16 07:22:50;;;;;;;4.47;3.53;;;19.20;99.90;;;;;;5052194;28;20313;-61
2022/05/16 07:25:22;;;;;;;5.93;3.33;;;19.30;99.90;;;;;;5052216;28;20208;-61
2022/05/16 07:27:57;;;;;;;6.60;3.83;;;19.40;99.90;;;;;;5051867;28;20231;-60
2022/05/16 07:30:25;;;;;;;5.53;3.47;;;19.60;99.90;;;;;;5052201;28;20183;-61
2022/05/16 07:32:55;;;;;;;5.95;3.45;;;19.70;99.90;;;;;;5051988;28;20292;-61
2022/05/16 07:35:26;;;;;;;6.72;3.85;;;19.90;99.90;;;;;;5052097;28;20299;-60
2022/05/16 07:37:54;;;;;;;7.97;4.38;;;20.10;99.90;;;;;;5052119;28;20208;-61
2022/05/16 07:40:23;;;;;;;7.57;4.63;;;20.20;93.80;;;;;;5051776;28;20197;-61
2022/05/16 07:42:53;;;;;;;9.68;5.05;;;20.30;99.90;;;;;;5051942;28;20238;-61
2022/05/16 07:45:21;;;;;;;7.07;4.70;;;20.50;99.90;;;;;;5051729;28;20203;-61
2022/05/16 07:47:48;;;;;;;10.02;4.40;;;20.60;99.60;;;;;;5052142;28;20210;-61
2022/05/16 07:50:16;;;;;;;5.85;4.30;;;21.10;71.80;;;;;;5052034;28;20663;-61
2022/05/16 07:52:48;;;;;;;8.55;4.70;;;21.30;39.50;;;;;;5051930;28;20191;-62
2022/05/16 07:55:16;;;;;;;4.70;4.30;;;21.50;47.40;;;;;;5051988;28;20261;-61
2022/05/16 07:57:43;;;;;;;11.02;4.72;;;21.70;35.00;;;;;;5051341;28;20736;-61
2022/05/16 08:00:11;;;;;;;8.13;3.92;;;21.90;30.70;;;;;;5051828;28;20199;-61
2022/05/16 08:02:39;;;;;;;5.20;3.60;;;22.10;11.60;;;;;;5051832;28;20219;-61
2022/05/16 08:05:07;;;;;;;8.50;3.83;;;22.00;8.10;;;;;;5051866;28;20227;-60
2022/05/16 08:10:28;;;;;;;6.78;4.15;;;22.10;1.20;;;;;;5051646;28;20195;-61
2022/05/16 08:10:31;;;;;;;6.80;3.65;;;22.50;1.00;;;;;;5051499;28;20191;-61
2022/05/16 08:12:58;;;;;;;9.75;3.78;;;22.70;1.00;;;;;;5051575;28;20632;-61
2022/05/16 08:15:26;;;;;;;5.18;4.00;;;22.60;1.00;;;;;;5052057;28;20289;-62
2022/05/16 08:17:54;;;;;;;5.72;3.80;;;22.60;1.00;;;;;;5052468;28;20231;-61
2022/05/16 08:20:21;;;;;;;5.68;3.85;;;22.60;1.00;;;;;;5052024;28;20206;-63
2022/05/16 08:22:51;;;;;;;6.50;3.70;;;22.60;1.00;;;;;;5051245;28;20754;-62
2022/05/16 08:25:18;;;;;;;6.18;4.13;;;23.40;1.00;;;;;;5053510;28;20199;-61
2022/05/16 08:27:45;;;;;;;6.35;3.97;;;23.80;1.00;;;;;;5054786;28;20334;-61
2022/05/16 08:30:13;;;;;;;9.32;3.92;;;23.50;1.00;;;;;;5055439;28;20204;-62
2022/05/16 08:32:40;;;;;;;8.45;3.65;;;24.00;1.00;;;;;;5054824;28;20214;-62
2022/05/16 08:35:10;;;;;;;7.45;4.07;;;24.40;1.00;;;;;;5055220;28;20196;-62
2022/05/16 08:40:30;;;;;;;7.28;4.05;;;24.80;1.00;;;;;;5055143;28;20200;-63
2022/05/16 08:43:04;;;;;;;6.65;3.60;;;25.70;1.00;;;;;;5055114;28;20204;-63
2022/05/16 08:45:34;;;;;;;6.85;3.33;;;26.40;1.00;;;;;;5055099;28;20179;-63
2022/05/16 08:48:08;;;;;;;5.05;3.20;;;26.40;1.00;;;;;;5054744;28;20792;-63
2022/05/16 08:50:40;;;;;;;5.10;3.50;;;26.70;1.00;;;;;;5054980;28;20180;-64
2022/05/16 08:53:13;;;;;;;5.88;3.53;;;27.00;1.00;;;;;;5055151;28;20184;-64
2022/05/16 08:55:43;;;;;;;7.32;3.85;;;27.50;1.00;;;;;;5054904;28;20191;-64
2022/05/16 08:58:16;;;;;;;7.30;3.97;;;26.40;1.00;;;;;;5055187;28;20549;-63
2022/05/16 09:00:48;;;;;;;7.50;3.97;;;25.90;1.00;;;;;;5054536;28;20707;-63
2022/05/16 09:03:19;;;;;;;7.07;3.83;;;26.90;1.00;;;;;;5054256;28;20659;-62
2022/05/16 09:05:51;;;;;;;10.25;4.30;;;27.90;1.00;;;;;;5054823;28;20241;-63
2022/05/16 09:08:27;;;;;;;7.35;3.88;;;27.20;1.00;;;;;;5054257;28;20206;-63
2022/05/16 09:11:05;;;;;;;7.07;3.30;;;26.60;1.00;;;;;;5054667;28;20175;-64
2022/05/16 09:13:47;;;;;;;7.57;3.63;;;26.10;1.00;;;;;;5054518;28;20226;-63
2022/05/16 09:16:28;;;;;;;6.47;3.83;;;25.70;1.00;;;;;;5054532;28;20180;-64
2022/05/16 09:19:01;;;;;;;8.68;3.63;;;25.70;1.00;;;;;;5054319;28;20195;-63
2022/05/16 09:21:39;;;;;;;8.38;3.40;;;25.90;1.00;;;;;;5054372;28;20430;-63
2022/05/16 09:24:09;;;;;;;12.30;9.55;;;26.50;1.00;;;;;;5054374;28;20279;-62
2022/05/16 09:26:48;;;;;;;6.97;3.92;;;26.40;1.00;;;;;;5053842;28;20192;-64
2022/05/16 09:29:23;;;;;;;7.47;4.90;;;26.20;1.00;;;;;;5054128;28;20180;-63
2022/05/16 09:31:53;;;;;;;6.03;3.58;;;27.10;1.00;;;;;;5054222;28;20286;-63
2022/05/16 09:34:20;;;;;;;6.45;3.30;;;27.90;1.00;;;;;;5054056;28;20572;-63
2022/05/16 09:36:49;;;;;;;5.25;4.75;;;28.30;1.00;;;;;;5053415;28;20199;-63
2022/05/16 09:39:20;;;;;;;5.22;2.70;;;29.30;1.00;;;;;;5053987;28;20653;-63
2022/05/16 09:41:56;;;;;;;6.05;2.95;;;29.20;1.00;;;;;;5053806;28;20210;-64
2022/05/16 09:44:28;;;;;;;5.95;2.88;;;28.30;1.00;;;;;;5053948;28;20189;-63
2022/05/16 09:47:21;;;;;;;4.90;4.57;;;27.40;1.00;;;;;;5053955;28;20278;-64
2022/05/16 09:50:09;;;;;;;7.32;4.82;;;27.70;1.00;;;;;;5054200;28;20195;-64
2022/05/16 09:52:40;;;;;;;8.10;5.78;;;28.20;1.00;;;;;;5053929;28;20176;-65
2022/05/16 09:55:11;;;;;;;2.75;2.30;;;28.10;1.00;;;;;;5053728;28;20192;-65
2022/05/16 09:57:47;;;;;;;4.13;3.33;;;28.10;1.00;;;;;;5053478;28;20191;-64
2022/05/16 10:00:23;;;;;;;7.10;6.55;;;28.60;1.00;;;;;;5053823;28;20560;-63
2022/05/16 10:03:01;;;;;;;10.90;10.13;;;29.20;1.00;;;;;;5053794;28;20203;-63
2022/05/16 10:05:31;;;;;;;4.68;2.90;;;29.20;1.00;;;;;;5053579;28;20183;-63
2022/05/16 10:08:02;;;;;;;4.35;3.95;;;29.10;1.00;;;;;;5053809;28;20195;-63
2022/05/16 10:10:33;;;;;;;8.85;3.38;;;29.00;1.00;;;;;;5053580;28;20249;-64
2022/05/16 10:13:02;;;;;;;7.97;4.70;;;29.30;1.00;;;;;;5053608;28;20511;-63
2022/05/16 10:15:31;;;;;;;4.30;4.00;;;29.00;1.00;;;;;;5053525;28;20558;-63
2022/05/16 10:17:59;;;;;;;8.85;8.18;;;29.60;1.00;;;;;;5053622;28;20307;-63
2022/05/16 10:20:31;;;;;;;4.97;2.75;;;29.30;1.00;;;;;;5053041;28;20306;-63
2022/05/16 10:23:02;;;;;;;5.03;2.83;;;28.90;1.00;;;;;;5053323;28;20214;-64
2022/05/16 10:25:34;;;;;;;40.03;36.58;;;28.10;1.00;;;;;;5052320;28;20187;-63
2022/05/16 10:28:08;;;;;;;8.48;3.42;;;27.60;1.00;;;;;;5052818;28;20239;-63
2022/05/16 10:33:24;;;;;;;6.63;3.72;;;27.70;1.00;;;;;;5052830;28;20180;-64
2022/05/16 10:33:26;;;;;;;8.18;7.38;;;27.30;1.00;;;;;;5053100;28;20180;-63
2022/05/16 10:35:59;;;;;;;47.88;45.30;;;28.00;1.00;;;;;;5052876;28;20199;-63
2022/05/16 10:38:34;;;;;;;23.80;22.52;;;28.30;1.00;;;;;;5052700;28;20219;-63
2022/05/16 10:41:04;;;;;;;13.40;12.02;;;28.60;1.00;;;;;;5053317;28;20232;-64
2022/05/16 10:43:40;;;;;;;6.53;3.70;;;28.40;1.00;;;;;;5052558;28;20219;-64
2022/05/16 10:46:11;;;;;;;6.60;3.33;;;27.40;1.00;;;;;;5053089;28;20918;-63
2022/05/16 10:48:45;;;;;;;9.32;4.25;;;27.10;1.00;;;;;;5052791;28;20187;-63
2022/05/16 10:51:15;;;;;;;9.63;4.35;;;26.10;1.00;;;;;;5052954;28;20317;-63
2022/05/16 10:53:56;;;;;;;16.92;5.25;;;25.40;1.00;;;;;;5052657;28;20544;-63
2022/05/16 10:56:42;;;;;;;9.57;8.25;;;25.10;1.00;;;;;;5052404;28;20259;-63
2022/05/16 10:59:22;;;;;;;7.57;3.92;;;25.40;1.00;;;;;;5052401;28;20187;-63
2022/05/16 11:01:56;;;;;;;42.05;39.60;;;26.10;1.00;;;;;;5052607;28;20218;-63
2022/05/16 11:04:44;;;;;;;24.45;22.88;;;27.20;1.00;;;;;;5052172;28;20711;-63
2022/05/16 11:07:22;;;;;;;24.27;21.90;;;28.10;1.00;;;;;;5052126;28;20184;-63
2022/05/16 11:09:55;;;;;;;8.73;7.45;;;27.80;1.00;;;;;;5052336;28;20184;-63
2022/05/16 11:12:27;;;;;;;18.85;8.52;;;27.70;1.00;;;;;;5052268;28;20542;-64
2022/05/16 11:15:06;;;;;;;5.22;4.72;;;27.10;1.00;;;;;;5052406;28;20194;-63
2022/05/16 11:17:51;;;;;;;11.65;8.80;;;26.10;1.00;;;;;;5051985;28;20194;-63
2022/05/16 11:20:24;;;;;;;6.35;4.75;;;25.90;1.00;;;;;;5052562;28;20184;-62
2022/05/16 11:22:57;;;;;;;6.18;3.95;;;26.00;1.00;;;;;;5052281;28;20207;-62
2022/05/16 11:25:31;;;;;;;7.35;3.88;;;26.20;1.00;;;;;;5051876;28;20187;-63
2022/05/16 11:28:04;;;;;;;6.75;4.43;;;26.00;1.00;;;;;;5052040;28;20296;-63
2022/05/16 11:30:42;;;;;;;8.43;6.35;;;25.80;1.00;;;;;;5052191;28;20549;-63
2022/05/16 11:33:21;;;;;;;8.25;7.00;;;25.60;1.00;;;;;;5052254;28;20198;-62
2022/05/16 11:35:51;;;;;;;34.90;32.67;;;25.60;1.00;;;;;;5052261;28;20190;-63
2022/05/16 11:38:33;;;;;;;23.08;21.65;;;25.70;1.00;;;;;;5052445;28;20216;-63
2022/05/16 11:41:10;;;;;;;15.50;7.88;;;26.50;1.00;;;;;;5052312;28;20200;-64
2022/05/16 11:43:42;;;;;;;7.30;6.22;;;26.50;1.00;;;;;;5051766;28;20734;-63
2022/05/16 11:46:29;;;;;;;8.15;6.43;;;26.80;1.00;;;;;;5052263;28;20544;-63
2022/05/16 11:49:20;;;;;;;10.43;6.47;;;26.10;1.00;;;;;;5052173;28;20605;-64
2022/05/16 11:52:25;;;;;;;8.70;6.47;;;25.70;1.00;;;;;;5052469;28;20180;-63
2022/05/16 11:54:58;;;;;;;8.93;6.38;;;25.50;1.00;;;;;;5052159;28;20596;-63
2022/05/16 12:00:34;;;;;;;8.82;5.45;;;24.80;1.00;;;;;;5053561;28;20172;-63
2022/05/16 12:03:17;;;;;;;15.52;5.43;;;24.70;1.00;;;;;;5056061;28;20200;-62
2022/05/16 12:05:46;;;;;;;9.93;5.70;;;24.60;1.00;;;;;;5055637;28;20218;-62
2022/05/16 12:08:40;;;;;;;7.07;5.82;;;24.20;1.00;;;;;;5055810;28;20199;-62
2022/05/16 12:11:16;;;;;;;10.75;6.10;;;24.20;1.00;;;;;;5055864;28;20188;-63
2022/05/16 12:14:02;;;;;;;8.25;5.32;;;24.50;1.00;;;;;;5055774;28;20180;-62
2022/05/16 12:16:32;;;;;;;8.80;7.63;;;24.70;1.00;;;;;;5055810;28;20565;-62
2022/05/16 12:19:26;;;;;;;7.40;5.00;;;24.70;1.00;;;;;;5055701;28;20206;-62
2022/05/16 12:22:12;;;;;;;10.35;5.40;;;24.80;1.00;;;;;;5055485;28;20192;-63
2022/05/16 12:25:02;;;;;;;7.70;6.22;;;24.50;1.00;;;;;;5055591;28;20302;-63
2022/05/16 12:27:34;;;;;;;7.05;5.03;;;24.20;1.00;;;;;;5055181;28;20258;-63
2022/05/16 12:30:06;;;;;;;12.68;6.72;;;24.20;1.00;;;;;;5055014;28;20557;-63
2022/05/16 12:32:51;;;;;;;56.45;52.78;;;24.70;1.00;;;;;;5055315;28;20194;-63
2022/05/16 12:35:38;;;;;;;36.42;17.25;;;25.10;1.00;;;;;;5055238;28;20187;-64
2022/05/16 12:38:06;;;;;;;6.63;5.88;;;25.40;1.00;;;;;;5054727;28;20211;-64
2022/05/16 12:41:02;;;;;;;8.50;5.82;;;25.00;1.00;;;;;;5055088;28;20231;-64
2022/05/16 12:43:44;;;;;;;10.77;6.05;;;25.00;1.00;;;;;;5027957;28;20220;-64
2022/05/16 12:46:20;;;;;;;10.40;6.35;;;25.60;1.00;;;;;;5055102;28;20183;-64
2022/05/16 12:49:18;;;;;;;10.32;8.88;;;25.40;1.00;;;;;;5054694;28;20188;-64
2022/05/16 12:51:59;;;;;;;19.40;12.23;;;25.00;1.00;;;;;;5053268;28;20187;-64
2022/05/16 12:54:57;;;;;;;10.35;6.55;;;24.60;1.00;;;;;;5053504;28;20216;-64
2022/05/16 12:57:49;;;;;;;10.15;6.47;;;24.70;1.00;;;;;;5050574;28;20180;-64
2022/05/16 13:00:20;;;;;;;7.63;6.90;;;24.60;1.00;;;;;;5051964;28;20533;-64
2022/05/16 13:03:05;;;;;;;8.38;6.18;;;24.30;1.00;;;;;;5055262;28;20212;-64
2022/05/16 13:05:40;;;;;;;11.57;7.20;;;24.00;1.00;;;;;;5054893;28;20188;-63
2022/05/16 13:08:23;;;;;;;13.02;7.18;;;23.80;1.00;;;;;;5055048;28;20176;-64
2022/05/16 13:10:57;;;;;;;9.57;7.43;;;23.60;1.00;;;;;;5054470;28;20241;-66
2022/05/16 13:13:45;;;;;;;36.53;8.00;;;23.50;3.60;;;;;;5054682;28;20167;-67
2022/05/16 13:16:21;;;;;;;9.82;7.45;;;23.00;29.60;;;;;;5054988;28;20191;-65
2022/05/16 13:18:55;;;;;;;19.63;8.00;;;23.10;48.50;;;;;;5054962;28;20176;-68
2022/05/16 13:21:23;;;;;;;12.30;6.85;;;23.00;48.50;;;;;;5054822;28;20282;-61
2022/05/16 13:23:53;;;;;;;35.95;8.27;;;22.90;62.80;;;;;;5053664;28;20224;-63
2022/05/16 13:31:57;;;;;;;12.10;8.68;;;23.00;63.60;;;;;;4992489;28;20205;-62
2022/05/16 13:34:33;;;;;;;10.43;6.88;;;22.80;52.50;;;;;;4991262;28;20233;-62
2022/05/16 13:37:01;;;;;;;10.77;7.72;;;22.80;87.60;;;;;;4991267;28;20232;-62
2022/05/16 13:39:36;;;;;;;10.63;7.05;;;22.60;75.90;;;;;;4991753;28;20213;-62